CheckWX is a tool to help pilots better visualize weather data.  It is not intended as a substitute for an official pre-flight weather briefing.

09:23:43 UTC

KBCE TAF
Bryce Canyon Airport
Bryce Canyon, Utah, USA
KBCE 200539Z 2006/2106 30008KT P6SM SCT100 FM201000 27008KT 4SM -SN SCT020 OVC035 FM210300 18008KT 1SM -SN OVC008

Feb-20@
06:00 UTC

Feb-20 @ 06:00 UTC

Feb-20@
10:00 UTC

Feb-20 @ 10:00 UTC

KBCE 200539Z 2006/2106 30008KT P6SM SCT100
Wind
  • 300° at 8 KTS
Visibility
10,000+ meters
Cloud Levels
  • Scattered at 10,000' AGL

Feb-20@
10:00 UTC

Feb-20 @ 10:00 UTC

Feb-21@
03:00 UTC

Feb-21 @ 03:00 UTC

FM201000 27008KT 4SM -SN SCT020 OVC035

From

FromStandard forecast or significant change

Wind
  • 270° at 8 KTS
Visibility
6,437 meters
Conditions
Light Snow
Cloud Levels
  • Scattered at 2,000' AGL
  • Overcast at 3,500' AGL

Feb-21@
03:00 UTC

Feb-21 @ 03:00 UTC

Feb-21@
06:00 UTC

Feb-21 @ 06:00 UTC

FM210300 18008KT 1SM -SN OVC008

From

FromStandard forecast or significant change

Wind
  • 180° at 8 KTS
Visibility
1,609 meters
Conditions
Light Snow
Cloud Levels
  • Overcast at 800' AGL